Quesnel Airport
CYQZ : now visible

Airfield :











YOU CAN JOIN US ON...

 
LOGIN :

Register | Disclaimer

   EN    FR    IT 

 









Legend :    VFR   Marginal VFR   IFR   Intensive IFR   Very Intensive IFR
Visi :
Ceiling :
>= 8 km
>= 3000ft
5 to 8 km
1000 to 3000 ft
1500m to 5 km
500 to 1000 ft
800 to 1500m
200 to 500 ft
< 800m
< 200 ft
Symbols :   Thunderstorms  Fog  Heavy snow  Heavy precipitations  Wind > 20 kt






- Airport Elevation : 1789 ft
- IATA code : YQZ


CYQZ - Quesnel

CURRENT METAR :
  • 231700Z AUTO 19006KT 6SM -SN OVC009 M12/M14 A3011 RMK SLP247

EXPIRED METARs :
  • 231600Z AUTO 20008KT 9SM -SN OVC009 M12/M13 A3013 RMK SLP250
  • 231500Z AUTO 15007KT 9SM -SN OVC009 M12/M13 A3014 RMK SLP253
  • 231448Z AUTO 15009KT 9SM -SN OVC009 M12/M13 A3014 RMK SLP252
  • 231431Z AUTO 16007KT 9SM OVC009 M11/M13 A3014 RMK SLP253

TAF TAF CYQZ
Valid from the 23 at 12:00 until the 24 at 00:00 UTC


231138Z 2312/2324 15005KT P6SM OVC012
TEMPO 2312/2319 2SM -SN BR OVC009
FM231900 16008KT P6SM SCT015 SCT100
TEMPO 2319/2324 BKN015 BKN100 RMK FCST BASED ON AUTO OBS. NXT FCST BY 231900Z
CZVR FIR / North America



MET'MAP, your aeronautical weather chart ! - Copyright ORBIFLY December 2007 - Disclaimer

ORBIFLY MET'MAP TEAM :

Programming & Development : Alexandra Zaïnal
Concept & original design : Baudouin d'Aumeries
Assistance for programming : Marc-Olivier Méhu
Technical & hardware support : Manuel Goepfert

Contact : metmap@orbifly.com




SOURCES & CREDITS :

   NOAA       Earth
Advisory